sensor_id;sensor_type;location;lat;lon;timestamp;P1;durP1;ratioP1;P2;durP2;ratioP2
41629;SDS011;27322;49.488;8.480;2024-02-04T00:00:22;2.28;;;0.60;;
41629;SDS011;27322;49.488;8.480;2024-02-04T00:02:48;1.52;;;0.70;;
41629;SDS011;27322;49.488;8.480;2024-02-04T00:05:14;0.77;;;0.40;;
41629;SDS011;27322;49.488;8.480;2024-02-04T00:07:39;1.33;;;0.50;;
41629;SDS011;27322;49.488;8.480;2024-02-04T00:10:05;1.13;;;0.50;;
41629;SDS011;27322;49.488;8.480;2024-02-04T00:12:31;0.98;;;0.40;;
41629;SDS011;27322;49.488;8.480;2024-02-04T00:14:56;2.28;;;0.60;;
41629;SDS011;27322;49.488;8.480;2024-02-04T00:17:22;1.20;;;0.50;;
41629;SDS011;27322;49.488;8.480;2024-02-04T00:19:48;0.60;;;0.40;;
41629;SDS011;27322;49.488;8.480;2024-02-04T00:22:13;0.93;;;0.40;;
41629;SDS011;27322;49.488;8.480;2024-02-04T00:24:42;1.20;;;0.52;;
41629;SDS011;27322;49.488;8.480;2024-02-04T00:27:07;0.75;;;0.50;;
41629;SDS011;27322;49.488;8.480;2024-02-04T00:29:33;1.60;;;0.50;;
41629;SDS011;27322;49.488;8.480;2024-02-04T00:31:59;0.90;;;0.40;;
41629;SDS011;27322;49.488;8.480;2024-02-04T00:34:24;0.73;;;0.40;;
41629;SDS011;27322;49.488;8.480;2024-02-04T00:36:50;1.20;;;0.50;;
41629;SDS011;27322;49.488;8.480;2024-02-04T00:39:16;1.73;;;0.57;;
41629;SDS011;27322;49.488;8.480;2024-02-04T00:41:41;0.95;;;0.40;;
41629;SDS011;27322;49.488;8.480;2024-02-04T00:44:07;0.80;;;0.50;;
41629;SDS011;27322;49.488;8.480;2024-02-04T00:46:32;0.98;;;0.47;;
41629;SDS011;27322;49.488;8.480;2024-02-04T00:48:58;0.95;;;0.50;;
41629;SDS011;27322;49.488;8.480;2024-02-04T00:51:24;1.20;;;0.50;;
41629;SDS011;27322;49.488;8.480;2024-02-04T00:53:49;1.02;;;0.50;;
41629;SDS011;27322;49.488;8.480;2024-02-04T00:56:15;1.27;;;0.50;;
41629;SDS011;27322;49.488;8.480;2024-02-04T00:58:41;1.33;;;0.45;;
41629;SDS011;27322;49.488;8.480;2024-02-04T01:01:06;0.88;;;0.47;;
41629;SDS011;27322;49.488;8.480;2024-02-04T01:03:32;1.40;;;0.60;;
41629;SDS011;27322;49.488;8.480;2024-02-04T01:05:58;0.93;;;0.50;;
41629;SDS011;27322;49.488;8.480;2024-02-04T01:08:24;0.80;;;0.43;;
41629;SDS011;27322;49.488;8.480;2024-02-04T01:10:49;0.80;;;0.30;;
41629;SDS011;27322;49.488;8.480;2024-02-04T01:13:18;1.08;;;0.60;;
41629;SDS011;27322;49.488;8.480;2024-02-04T01:15:43;1.05;;;0.50;;
41629;SDS011;27322;49.488;8.480;2024-02-04T01:18:09;0.68;;;0.40;;
41629;SDS011;27322;49.488;8.480;2024-02-04T01:20:35;1.00;;;0.50;;
41629;SDS011;27322;49.488;8.480;2024-02-04T01:23:00;1.00;;;0.50;;
41629;SDS011;27322;49.488;8.480;2024-02-04T01:25:26;0.70;;;0.40;;
41629;SDS011;27322;49.488;8.480;2024-02-04T01:27:52;1.67;;;0.50;;
41629;SDS011;27322;49.488;8.480;2024-02-04T01:30:17;1.13;;;0.50;;
41629;SDS011;27322;49.488;8.480;2024-02-04T01:32:43;0.70;;;0.40;;
41629;SDS011;27322;49.488;8.480;2024-02-04T01:35:09;2.80;;;0.50;;
41629;SDS011;27322;49.488;8.480;2024-02-04T01:37:34;0.90;;;0.50;;
41629;SDS011;27322;49.488;8.480;2024-02-04T01:40:00;0.98;;;0.40;;
41629;SDS011;27322;49.488;8.480;2024-02-04T01:42:25;0.80;;;0.40;;
41629;SDS011;27322;49.488;8.480;2024-02-04T01:44:51;1.00;;;0.60;;
41629;SDS011;27322;49.488;8.480;2024-02-04T01:47:16;1.13;;;0.50;;
41629;SDS011;27322;49.488;8.480;2024-02-04T01:49:43;0.93;;;0.45;;
41629;SDS011;27322;49.488;8.480;2024-02-04T01:52:09;0.88;;;0.50;;
41629;SDS011;27322;49.488;8.480;2024-02-04T01:54:36;0.95;;;0.50;;
41629;SDS011;27322;49.488;8.480;2024-02-04T01:57:03;1.50;;;0.55;;
41629;SDS011;27322;49.488;8.480;2024-02-04T01:59:29;1.08;;;0.50;;
41629;SDS011;27322;49.488;8.480;2024-02-04T02:01:57;1.15;;;0.50;;
41629;SDS011;27322;49.488;8.480;2024-02-04T02:04:25;1.33;;;0.57;;
41629;SDS011;27322;49.488;8.480;2024-02-04T02:06:52;1.38;;;0.57;;
41629;SDS011;27322;49.488;8.480;2024-02-04T02:09:21;1.15;;;0.50;;
41629;SDS011;27322;49.488;8.480;2024-02-04T02:11:47;0.80;;;0.40;;
41629;SDS011;27322;49.488;8.480;2024-02-04T02:14:29;1.45;;;0.70;;
41629;SDS011;27322;49.488;8.480;2024-02-04T02:17:00;1.63;;;0.60;;
41629;SDS011;27322;49.488;8.480;2024-02-04T02:24:36;2.35;;;0.70;;
41629;SDS011;27322;49.488;8.480;2024-02-04T02:27:06;3.03;;;0.90;;
41629;SDS011;27322;49.488;8.480;2024-02-04T02:29:31;5.75;;;1.60;;
41629;SDS011;27322;49.488;8.480;2024-02-04T02:31:57;3.55;;;1.58;;
41629;SDS011;27322;49.488;8.480;2024-02-04T02:34:24;2.63;;;0.77;;
41629;SDS011;27322;49.488;8.480;2024-02-04T02:36:52;1.40;;;0.65;;
41629;SDS011;27322;49.488;8.480;2024-02-04T02:39:24;0.77;;;0.40;;
41629;SDS011;27322;49.488;8.480;2024-02-04T02:41:55;0.70;;;0.40;;
41629;SDS011;27322;49.488;8.480;2024-02-04T02:44:23;1.00;;;0.43;;
41629;SDS011;27322;49.488;8.480;2024-02-04T02:46:51;0.70;;;0.40;;
41629;SDS011;27322;49.488;8.480;2024-02-04T02:49:17;1.65;;;0.50;;
41629;SDS011;27322;49.488;8.480;2024-02-04T02:51:43;0.77;;;0.40;;
41629;SDS011;27322;49.488;8.480;2024-02-04T02:54:08;0.90;;;0.40;;
41629;SDS011;27322;49.488;8.480;2024-02-04T02:56:34;0.65;;;0.40;;
41629;SDS011;27322;49.488;8.480;2024-02-04T02:59:00;0.70;;;0.40;;
41629;SDS011;27322;49.488;8.480;2024-02-04T03:01:25;1.40;;;0.45;;
41629;SDS011;27322;49.488;8.480;2024-02-04T03:03:51;0.82;;;0.30;;
41629;SDS011;27322;49.488;8.480;2024-02-04T03:06:16;1.00;;;0.30;;
41629;SDS011;27322;49.488;8.480;2024-02-04T03:08:42;0.70;;;0.30;;
41629;SDS011;27322;49.488;8.480;2024-02-04T03:11:08;0.40;;;0.30;;
41629;SDS011;27322;49.488;8.480;2024-02-04T03:13:33;0.50;;;0.30;;
41629;SDS011;27322;49.488;8.480;2024-02-04T03:15:59;0.50;;;0.38;;
41629;SDS011;27322;49.488;8.480;2024-02-04T03:18:25;0.85;;;0.40;;
41629;SDS011;27322;49.488;8.480;2024-02-04T03:20:51;0.50;;;0.30;;
41629;SDS011;27322;49.488;8.480;2024-02-04T03:23:16;0.93;;;0.30;;
41629;SDS011;27322;49.488;8.480;2024-02-04T03:25:42;0.57;;;0.30;;
41629;SDS011;27322;49.488;8.480;2024-02-04T03:28:07;2.25;;;0.30;;
41629;SDS011;27322;49.488;8.480;2024-02-04T03:30:33;0.93;;;0.40;;
41629;SDS011;27322;49.488;8.480;2024-02-04T03:32:58;1.17;;;0.30;;
41629;SDS011;27322;49.488;8.480;2024-02-04T03:35:24;0.65;;;0.30;;
41629;SDS011;27322;49.488;8.480;2024-02-04T03:37:49;0.65;;;0.32;;
41629;SDS011;27322;49.488;8.480;2024-02-04T03:40:15;0.85;;;0.40;;
41629;SDS011;27322;49.488;8.480;2024-02-04T03:42:42;0.57;;;0.30;;
41629;SDS011;27322;49.488;8.480;2024-02-04T03:45:08;0.70;;;0.40;;
41629;SDS011;27322;49.488;8.480;2024-02-04T03:47:34;0.50;;;0.30;;
41629;SDS011;27322;49.488;8.480;2024-02-04T03:49:59;0.82;;;0.32;;
41629;SDS011;27322;49.488;8.480;2024-02-04T03:52:25;1.15;;;0.40;;
41629;SDS011;27322;49.488;8.480;2024-02-04T03:54:50;0.40;;;0.30;;
41629;SDS011;27322;49.488;8.480;2024-02-04T03:57:16;0.70;;;0.40;;
41629;SDS011;27322;49.488;8.480;2024-02-04T03:59:45;0.50;;;0.30;;
41629;SDS011;27322;49.488;8.480;2024-02-04T04:02:13;0.68;;;0.40;;
41629;SDS011;27322;49.488;8.480;2024-02-04T04:04:40;0.95;;;0.20;;
41629;SDS011;27322;49.488;8.480;2024-02-04T04:07:12;0.50;;;0.30;;
41629;SDS011;27322;49.488;8.480;2024-02-04T04:09:38;0.20;;;0.20;;
41629;SDS011;27322;49.488;8.480;2024-02-04T04:12:03;0.43;;;0.30;;
41629;SDS011;27322;49.488;8.480;2024-02-04T04:14:29;0.40;;;0.20;;
41629;SDS011;27322;49.488;8.480;2024-02-04T04:16:55;0.60;;;0.30;;
41629;SDS011;27322;49.488;8.480;2024-02-04T04:19:20;0.60;;;0.30;;
41629;SDS011;27322;49.488;8.480;2024-02-04T04:21:46;0.40;;;0.28;;
41629;SDS011;27322;49.488;8.480;2024-02-04T04:24:11;1.60;;;0.25;;
41629;SDS011;27322;49.488;8.480;2024-02-04T04:26:37;0.50;;;0.30;;
41629;SDS011;27322;49.488;8.480;2024-02-04T04:29:03;1.05;;;0.30;;
41629;SDS011;27322;49.488;8.480;2024-02-04T04:31:28;0.40;;;0.30;;
41629;SDS011;27322;49.488;8.480;2024-02-04T04:33:54;0.68;;;0.40;;
41629;SDS011;27322;49.488;8.480;2024-02-04T04:36:20;0.80;;;0.40;;
41629;SDS011;27322;49.488;8.480;2024-02-04T04:38:45;0.50;;;0.30;;
41629;SDS011;27322;49.488;8.480;2024-02-04T04:41:14;0.75;;;0.30;;
41629;SDS011;27322;49.488;8.480;2024-02-04T04:43:40;0.68;;;0.28;;
41629;SDS011;27322;49.488;8.480;2024-02-04T04:46:06;0.73;;;0.20;;
41629;SDS011;27322;49.488;8.480;2024-02-04T04:48:31;1.20;;;0.38;;
41629;SDS011;27322;49.488;8.480;2024-02-04T04:50:57;1.08;;;0.30;;
41629;SDS011;27322;49.488;8.480;2024-02-04T04:53:22;0.35;;;0.20;;
41629;SDS011;27322;49.488;8.480;2024-02-04T04:55:48;0.30;;;0.20;;
41629;SDS011;27322;49.488;8.480;2024-02-04T04:58:14;0.88;;;0.30;;
41629;SDS011;27322;49.488;8.480;2024-02-04T05:00:39;0.50;;;0.30;;
41629;SDS011;27322;49.488;8.480;2024-02-04T05:03:05;0.63;;;0.38;;
41629;SDS011;27322;49.488;8.480;2024-02-04T05:05:30;0.70;;;0.30;;
41629;SDS011;27322;49.488;8.480;2024-02-04T05:07:56;0.43;;;0.30;;
41629;SDS011;27322;49.488;8.480;2024-02-04T05:10:22;0.40;;;0.30;;
41629;SDS011;27322;49.488;8.480;2024-02-04T05:12:47;2.42;;;0.30;;
41629;SDS011;27322;49.488;8.480;2024-02-04T05:15:13;0.52;;;0.30;;
41629;SDS011;27322;49.488;8.480;2024-02-04T05:17:39;0.52;;;0.30;;
41629;SDS011;27322;49.488;8.480;2024-02-04T05:20:04;0.20;;;0.20;;
41629;SDS011;27322;49.488;8.480;2024-02-04T05:22:32;0.55;;;0.30;;
41629;SDS011;27322;49.488;8.480;2024-02-04T05:24:58;0.50;;;0.20;;
41629;SDS011;27322;49.488;8.480;2024-02-04T05:27:23;0.50;;;0.30;;
41629;SDS011;27322;49.488;8.480;2024-02-04T05:29:49;0.50;;;0.30;;
41629;SDS011;27322;49.488;8.480;2024-02-04T05:32:15;0.50;;;0.30;;
41629;SDS011;27322;49.488;8.480;2024-02-04T05:34:40;0.30;;;0.30;;
41629;SDS011;27322;49.488;8.480;2024-02-04T05:37:06;0.80;;;0.22;;
41629;SDS011;27322;49.488;8.480;2024-02-04T05:39:31;0.20;;;0.20;;
41629;SDS011;27322;49.488;8.480;2024-02-04T05:41:57;0.52;;;0.30;;
41629;SDS011;27322;49.488;8.480;2024-02-04T05:44:23;1.00;;;0.30;;
41629;SDS011;27322;49.488;8.480;2024-02-04T05:46:48;0.60;;;0.28;;
41629;SDS011;27322;49.488;8.480;2024-02-04T05:49:14;0.77;;;0.22;;
41629;SDS011;27322;49.488;8.480;2024-02-04T05:51:40;1.05;;;0.30;;
41629;SDS011;27322;49.488;8.480;2024-02-04T05:54:06;0.30;;;0.20;;
41629;SDS011;27322;49.488;8.480;2024-02-04T05:56:32;0.43;;;0.30;;
41629;SDS011;27322;49.488;8.480;2024-02-04T05:58:58;0.90;;;0.30;;
41629;SDS011;27322;49.488;8.480;2024-02-04T06:01:24;1.02;;;0.30;;
41629;SDS011;27322;49.488;8.480;2024-02-04T06:03:49;0.55;;;0.30;;
41629;SDS011;27322;49.488;8.480;2024-02-04T06:06:15;0.57;;;0.25;;
41629;SDS011;27322;49.488;8.480;2024-02-04T06:08:42;0.50;;;0.20;;
41629;SDS011;27322;49.488;8.480;2024-02-04T06:11:11;0.50;;;0.20;;
41629;SDS011;27322;49.488;8.480;2024-02-04T06:13:42;0.20;;;0.20;;
41629;SDS011;27322;49.488;8.480;2024-02-04T06:16:09;0.30;;;0.20;;
41629;SDS011;27322;49.488;8.480;2024-02-04T06:18:38;0.45;;;0.20;;
41629;SDS011;27322;49.488;8.480;2024-02-04T06:21:06;0.50;;;0.20;;
41629;SDS011;27322;49.488;8.480;2024-02-04T06:23:33;0.60;;;0.20;;
41629;SDS011;27322;49.488;8.480;2024-02-04T06:25:59;0.20;;;0.20;;
41629;SDS011;27322;49.488;8.480;2024-02-04T06:28:25;0.80;;;0.30;;
41629;SDS011;27322;49.488;8.480;2024-02-04T06:30:51;0.70;;;0.35;;
41629;SDS011;27322;49.488;8.480;2024-02-04T06:33:16;0.80;;;0.28;;
41629;SDS011;27322;49.488;8.480;2024-02-04T06:35:42;0.80;;;0.40;;
41629;SDS011;27322;49.488;8.480;2024-02-04T06:38:08;1.35;;;0.40;;
41629;SDS011;27322;49.488;8.480;2024-02-04T06:40:34;0.88;;;0.30;;
41629;SDS011;27322;49.488;8.480;2024-02-04T06:42:59;0.65;;;0.30;;
41629;SDS011;27322;49.488;8.480;2024-02-04T06:45:25;0.50;;;0.25;;
41629;SDS011;27322;49.488;8.480;2024-02-04T06:47:50;1.23;;;0.40;;
41629;SDS011;27322;49.488;8.480;2024-02-04T06:50:16;0.40;;;0.22;;
41629;SDS011;27322;49.488;8.480;2024-02-04T06:52:42;0.55;;;0.28;;
41629;SDS011;27322;49.488;8.480;2024-02-04T06:55:08;0.50;;;0.30;;
41629;SDS011;27322;49.488;8.480;2024-02-04T06:57:34;0.70;;;0.20;;
41629;SDS011;27322;49.488;8.480;2024-02-04T06:59:59;1.13;;;0.30;;
41629;SDS011;27322;49.488;8.480;2024-02-04T07:02:25;0.47;;;0.30;;
41629;SDS011;27322;49.488;8.480;2024-02-04T07:04:51;0.52;;;0.30;;
41629;SDS011;27322;49.488;8.480;2024-02-04T07:07:17;0.77;;;0.40;;
41629;SDS011;27322;49.488;8.480;2024-02-04T07:09:43;0.52;;;0.30;;
41629;SDS011;27322;49.488;8.480;2024-02-04T07:12:08;0.70;;;0.35;;
41629;SDS011;27322;49.488;8.480;2024-02-04T07:14:34;1.00;;;0.40;;
41629;SDS011;27322;49.488;8.480;2024-02-04T07:16:59;0.73;;;0.40;;
41629;SDS011;27322;49.488;8.480;2024-02-04T07:19:25;0.85;;;0.40;;
41629;SDS011;27322;49.488;8.480;2024-02-04T07:21:50;0.82;;;0.40;;
41629;SDS011;27322;49.488;8.480;2024-02-04T07:24:16;0.80;;;0.40;;
41629;SDS011;27322;49.488;8.480;2024-02-04T07:26:43;1.02;;;0.40;;
41629;SDS011;27322;49.488;8.480;2024-02-04T07:29:10;3.03;;;0.60;;
41629;SDS011;27322;49.488;8.480;2024-02-04T07:31:37;1.20;;;0.50;;
41629;SDS011;27322;49.488;8.480;2024-02-04T07:34:02;1.10;;;0.57;;
41629;SDS011;27322;49.488;8.480;2024-02-04T07:36:29;1.38;;;0.60;;
41629;SDS011;27322;49.488;8.480;2024-02-04T07:38:54;1.38;;;0.65;;
41629;SDS011;27322;49.488;8.480;2024-02-04T07:41:20;2.13;;;0.80;;
41629;SDS011;27322;49.488;8.480;2024-02-04T07:43:45;2.22;;;0.80;;
41629;SDS011;27322;49.488;8.480;2024-02-04T07:46:13;1.85;;;0.80;;
41629;SDS011;27322;49.488;8.480;2024-02-04T07:48:39;2.75;;;1.00;;
41629;SDS011;27322;49.488;8.480;2024-02-04T07:51:04;1.30;;;0.60;;
41629;SDS011;27322;49.488;8.480;2024-02-04T07:53:30;2.20;;;0.80;;
41629;SDS011;27322;49.488;8.480;2024-02-04T07:55:55;1.35;;;0.68;;
41629;SDS011;27322;49.488;8.480;2024-02-04T07:58:21;1.52;;;0.68;;
41629;SDS011;27322;49.488;8.480;2024-02-04T08:00:47;2.28;;;1.00;;
41629;SDS011;27322;49.488;8.480;2024-02-04T08:03:12;1.33;;;0.80;;
41629;SDS011;27322;49.488;8.480;2024-02-04T08:05:38;2.58;;;1.00;;
41629;SDS011;27322;49.488;8.480;2024-02-04T08:08:04;1.88;;;0.77;;
41629;SDS011;27322;49.488;8.480;2024-02-04T08:10:30;3.50;;;0.70;;
41629;SDS011;27322;49.488;8.480;2024-02-04T08:12:56;2.50;;;0.70;;
41629;SDS011;27322;49.488;8.480;2024-02-04T08:15:22;2.40;;;0.70;;
41629;SDS011;27322;49.488;8.480;2024-02-04T08:17:47;2.65;;;0.70;;
41629;SDS011;27322;49.488;8.480;2024-02-04T08:20:13;1.67;;;0.60;;
41629;SDS011;27322;49.488;8.480;2024-02-04T08:22:39;1.65;;;0.70;;
41629;SDS011;27322;49.488;8.480;2024-02-04T08:25:04;2.78;;;0.70;;
41629;SDS011;27322;49.488;8.480;2024-02-04T08:27:30;1.83;;;0.80;;
41629;SDS011;27322;49.488;8.480;2024-02-04T08:29:56;1.27;;;0.60;;
41629;SDS011;27322;49.488;8.480;2024-02-04T08:32:22;2.15;;;0.70;;
41629;SDS011;27322;49.488;8.480;2024-02-04T08:34:47;1.17;;;0.60;;
41629;SDS011;27322;49.488;8.480;2024-02-04T08:37:13;2.15;;;0.70;;
41629;SDS011;27322;49.488;8.480;2024-02-04T08:39:39;2.13;;;0.77;;
41629;SDS011;27322;49.488;8.480;2024-02-04T08:42:04;2.33;;;0.75;;
41629;SDS011;27322;49.488;8.480;2024-02-04T08:44:30;1.90;;;0.75;;
41629;SDS011;27322;49.488;8.480;2024-02-04T08:46:56;2.35;;;0.75;;
41629;SDS011;27322;49.488;8.480;2024-02-04T08:49:22;1.60;;;0.70;;
41629;SDS011;27322;49.488;8.480;2024-02-04T08:51:47;1.27;;;0.60;;
41629;SDS011;27322;49.488;8.480;2024-02-04T08:54:13;2.45;;;0.93;;
41629;SDS011;27322;49.488;8.480;2024-02-04T08:56:39;2.50;;;1.00;;
41629;SDS011;27322;49.488;8.480;2024-02-04T08:59:05;1.90;;;0.95;;
41629;SDS011;27322;49.488;8.480;2024-02-04T09:01:31;3.97;;;0.95;;
41629;SDS011;27322;49.488;8.480;2024-02-04T09:03:57;2.53;;;1.02;;
41629;SDS011;27322;49.488;8.480;2024-02-04T09:06:22;2.05;;;0.90;;
41629;SDS011;27322;49.488;8.480;2024-02-04T09:08:48;2.25;;;0.88;;
41629;SDS011;27322;49.488;8.480;2024-02-04T09:11:13;3.13;;;1.00;;
41629;SDS011;27322;49.488;8.480;2024-02-04T09:13:44;2.33;;;0.80;;
41629;SDS011;27322;49.488;8.480;2024-02-04T09:16:10;2.33;;;0.93;;
41629;SDS011;27322;49.488;8.480;2024-02-04T09:18:35;1.30;;;0.70;;
41629;SDS011;27322;49.488;8.480;2024-02-04T09:21:02;1.38;;;0.60;;
41629;SDS011;27322;49.488;8.480;2024-02-04T09:23:27;1.08;;;0.40;;
41629;SDS011;27322;49.488;8.480;2024-02-04T09:25:53;1.25;;;0.40;;
41629;SDS011;27322;49.488;8.480;2024-02-04T09:28:19;4.32;;;0.60;;
41629;SDS011;27322;49.488;8.480;2024-02-04T09:30:45;1.50;;;0.40;;
41629;SDS011;27322;49.488;8.480;2024-02-04T09:33:11;0.55;;;0.30;;
41629;SDS011;27322;49.488;8.480;2024-02-04T09:35:38;0.63;;;0.30;;
41629;SDS011;27322;49.488;8.480;2024-02-04T09:38:03;1.17;;;0.45;;
41629;SDS011;27322;49.488;8.480;2024-02-04T09:40:31;1.58;;;0.35;;
41629;SDS011;27322;49.488;8.480;2024-02-04T09:42:58;1.10;;;0.40;;
41629;SDS011;27322;49.488;8.480;2024-02-04T09:45:25;1.50;;;0.40;;
41629;SDS011;27322;49.488;8.480;2024-02-04T09:47:51;1.48;;;0.35;;
41629;SDS011;27322;49.488;8.480;2024-02-04T09:50:20;1.10;;;0.40;;
41629;SDS011;27322;49.488;8.480;2024-02-04T09:52:48;0.60;;;0.40;;
41629;SDS011;27322;49.488;8.480;2024-02-04T09:55:16;0.60;;;0.30;;
41629;SDS011;27322;49.488;8.480;2024-02-04T09:57:46;0.73;;;0.40;;
41629;SDS011;27322;49.488;8.480;2024-02-04T10:00:12;1.27;;;0.60;;
41629;SDS011;27322;49.488;8.480;2024-02-04T10:02:38;0.60;;;0.40;;
41629;SDS011;27322;49.488;8.480;2024-02-04T10:05:06;1.75;;;0.50;;
41629;SDS011;27322;49.488;8.480;2024-02-04T10:07:32;1.33;;;0.40;;
41629;SDS011;27322;49.488;8.480;2024-02-04T10:09:58;1.05;;;0.40;;
41629;SDS011;27322;49.488;8.480;2024-02-04T10:12:23;1.50;;;0.50;;
41629;SDS011;27322;49.488;8.480;2024-02-04T10:14:49;1.33;;;0.50;;
41629;SDS011;27322;49.488;8.480;2024-02-04T10:17:15;1.85;;;0.50;;
41629;SDS011;27322;49.488;8.480;2024-02-04T10:19:41;2.50;;;0.45;;
41629;SDS011;27322;49.488;8.480;2024-02-04T10:22:07;1.55;;;0.50;;
41629;SDS011;27322;49.488;8.480;2024-02-04T10:24:32;1.55;;;0.40;;
41629;SDS011;27322;49.488;8.480;2024-02-04T10:26:58;0.90;;;0.40;;
41629;SDS011;27322;49.488;8.480;2024-02-04T10:29:24;1.52;;;0.30;;
41629;SDS011;27322;49.488;8.480;2024-02-04T10:31:56;0.73;;;0.30;;
41629;SDS011;27322;49.488;8.480;2024-02-04T10:34:26;0.65;;;0.30;;
41629;SDS011;27322;49.488;8.480;2024-02-04T10:36:52;0.93;;;0.43;;
41629;SDS011;27322;49.488;8.480;2024-02-04T10:39:18;0.70;;;0.38;;
41629;SDS011;27322;49.488;8.480;2024-02-04T10:41:51;1.08;;;0.30;;
41629;SDS011;27322;49.488;8.480;2024-02-04T10:44:18;0.55;;;0.30;;
41629;SDS011;27322;49.488;8.480;2024-02-04T10:46:46;0.50;;;0.30;;
41629;SDS011;27322;49.488;8.480;2024-02-04T10:49:13;0.65;;;0.28;;
41629;SDS011;27322;49.488;8.480;2024-02-04T10:51:41;0.70;;;0.30;;
41629;SDS011;27322;49.488;8.480;2024-02-04T10:54:07;1.05;;;0.25;;
41629;SDS011;27322;49.488;8.480;2024-02-04T10:56:36;0.38;;;0.30;;
41629;SDS011;27322;49.488;8.480;2024-02-04T10:59:05;0.40;;;0.20;;
41629;SDS011;27322;49.488;8.480;2024-02-04T11:01:32;1.70;;;0.30;;
41629;SDS011;27322;49.488;8.480;2024-02-04T11:03:58;0.63;;;0.28;;
41629;SDS011;27322;49.488;8.480;2024-02-04T11:06:25;0.52;;;0.30;;
41629;SDS011;27322;49.488;8.480;2024-02-04T11:08:51;0.85;;;0.30;;
41629;SDS011;27322;49.488;8.480;2024-02-04T11:11:18;0.55;;;0.30;;
41629;SDS011;27322;49.488;8.480;2024-02-04T11:13:47;1.02;;;0.38;;
41629;SDS011;27322;49.488;8.480;2024-02-04T11:16:31;0.50;;;0.20;;
41629;SDS011;27322;49.488;8.480;2024-02-04T11:27:24;0.55;;;0.20;;
41629;SDS011;27322;49.488;8.480;2024-02-04T11:29:50;0.57;;;0.30;;
41629;SDS011;27322;49.488;8.480;2024-02-04T11:32:16;1.15;;;0.30;;
41629;SDS011;27322;49.488;8.480;2024-02-04T11:34:43;0.88;;;0.30;;
41629;SDS011;27322;49.488;8.480;2024-02-04T11:37:16;0.32;;;0.20;;
41629;SDS011;27322;49.488;8.480;2024-02-04T11:39:51;0.68;;;0.25;;
41629;SDS011;27322;49.488;8.480;2024-02-04T11:42:18;0.68;;;0.32;;
41629;SDS011;27322;49.488;8.480;2024-02-04T11:44:45;0.95;;;0.30;;
41629;SDS011;27322;49.488;8.480;2024-02-04T11:47:11;1.73;;;0.40;;
41629;SDS011;27322;49.488;8.480;2024-02-04T11:49:53;0.75;;;0.40;;
41629;SDS011;27322;49.488;8.480;2024-02-04T11:52:22;2.25;;;0.30;;
41629;SDS011;27322;49.488;8.480;2024-02-04T11:54:48;0.40;;;0.30;;
41629;SDS011;27322;49.488;8.480;2024-02-04T11:57:14;0.90;;;0.30;;
41629;SDS011;27322;49.488;8.480;2024-02-04T11:59:40;1.60;;;0.30;;
41629;SDS011;27322;49.488;8.480;2024-02-04T12:02:08;0.40;;;0.20;;
41629;SDS011;27322;49.488;8.480;2024-02-04T12:04:34;1.73;;;0.47;;
41629;SDS011;27322;49.488;8.480;2024-02-04T12:07:00;0.80;;;0.30;;
41629;SDS011;27322;49.488;8.480;2024-02-04T12:09:27;0.93;;;0.32;;
41629;SDS011;27322;49.488;8.480;2024-02-04T12:11:53;0.68;;;0.30;;
41629;SDS011;27322;49.488;8.480;2024-02-04T12:14:19;1.50;;;0.38;;
41629;SDS011;27322;49.488;8.480;2024-02-04T12:16:46;1.10;;;0.30;;
41629;SDS011;27322;49.488;8.480;2024-02-04T12:19:12;0.63;;;0.30;;
41629;SDS011;27322;49.488;8.480;2024-02-04T12:21:37;0.70;;;0.20;;
41629;SDS011;27322;49.488;8.480;2024-02-04T12:24:03;0.80;;;0.40;;
41629;SDS011;27322;49.488;8.480;2024-02-04T12:26:29;0.47;;;0.28;;
41629;SDS011;27322;49.488;8.480;2024-02-04T12:28:58;1.20;;;0.35;;
41629;SDS011;27322;49.488;8.480;2024-02-04T12:31:24;2.42;;;0.30;;
41629;SDS011;27322;49.488;8.480;2024-02-04T12:34:00;0.65;;;0.35;;
41629;SDS011;27322;49.488;8.480;2024-02-04T12:36:26;1.98;;;0.38;;
41629;SDS011;27322;49.488;8.480;2024-02-04T12:38:53;1.17;;;0.35;;
41629;SDS011;27322;49.488;8.480;2024-02-04T12:41:23;0.60;;;0.40;;
41629;SDS011;27322;49.488;8.480;2024-02-04T12:43:53;0.70;;;0.40;;
41629;SDS011;27322;49.488;8.480;2024-02-04T12:46:20;0.43;;;0.30;;
41629;SDS011;27322;49.488;8.480;2024-02-04T12:48:54;0.73;;;0.40;;
41629;SDS011;27322;49.488;8.480;2024-02-04T12:54:06;1.63;;;0.40;;
41629;SDS011;27322;49.488;8.480;2024-02-04T12:56:44;0.60;;;0.30;;
41629;SDS011;27322;49.488;8.480;2024-02-04T12:59:29;1.60;;;0.40;;
41629;SDS011;27322;49.488;8.480;2024-02-04T13:01:59;0.60;;;0.35;;
41629;SDS011;27322;49.488;8.480;2024-02-04T13:07:02;0.93;;;0.35;;
41629;SDS011;27322;49.488;8.480;2024-02-04T13:09:32;1.13;;;0.40;;
41629;SDS011;27322;49.488;8.480;2024-02-04T13:12:07;0.52;;;0.30;;
41629;SDS011;27322;49.488;8.480;2024-02-04T13:14:37;0.65;;;0.38;;
41629;SDS011;27322;49.488;8.480;2024-02-04T13:17:05;0.88;;;0.30;;
41629;SDS011;27322;49.488;8.480;2024-02-04T13:19:35;0.75;;;0.40;;
41629;SDS011;27322;49.488;8.480;2024-02-04T13:22:02;0.70;;;0.32;;
41629;SDS011;27322;49.488;8.480;2024-02-04T13:24:29;1.27;;;0.47;;
41629;SDS011;27322;49.488;8.480;2024-02-04T13:26:55;0.80;;;0.30;;
41629;SDS011;27322;49.488;8.480;2024-02-04T13:29:21;1.08;;;0.40;;
41629;SDS011;27322;49.488;8.480;2024-02-04T13:31:46;0.93;;;0.40;;
41629;SDS011;27322;49.488;8.480;2024-02-04T13:34:12;0.88;;;0.40;;
41629;SDS011;27322;49.488;8.480;2024-02-04T13:36:37;1.55;;;0.50;;
41629;SDS011;27322;49.488;8.480;2024-02-04T13:39:03;1.55;;;0.50;;
41629;SDS011;27322;49.488;8.480;2024-02-04T13:41:30;0.80;;;0.32;;
41629;SDS011;27322;49.488;8.480;2024-02-04T13:43:56;0.88;;;0.45;;
41629;SDS011;27322;49.488;8.480;2024-02-04T13:46:22;1.38;;;0.40;;
41629;SDS011;27322;49.488;8.480;2024-02-04T13:48:48;2.03;;;0.40;;
41629;SDS011;27322;49.488;8.480;2024-02-04T13:51:13;0.70;;;0.40;;
41629;SDS011;27322;49.488;8.480;2024-02-04T13:53:39;0.68;;;0.40;;
41629;SDS011;27322;49.488;8.480;2024-02-04T13:56:04;1.23;;;0.40;;
41629;SDS011;27322;49.488;8.480;2024-02-04T13:58:30;0.70;;;0.40;;
41629;SDS011;27322;49.488;8.480;2024-02-04T14:00:56;1.00;;;0.40;;
41629;SDS011;27322;49.488;8.480;2024-02-04T14:03:22;0.93;;;0.40;;
41629;SDS011;27322;49.488;8.480;2024-02-04T14:05:47;1.00;;;0.30;;
41629;SDS011;27322;49.488;8.480;2024-02-04T14:08:14;0.70;;;0.40;;
41629;SDS011;27322;49.488;8.480;2024-02-04T14:10:40;0.80;;;0.40;;
41629;SDS011;27322;49.488;8.480;2024-02-04T14:13:06;1.27;;;0.50;;
41629;SDS011;27322;49.488;8.480;2024-02-04T14:15:31;1.13;;;0.50;;
41629;SDS011;27322;49.488;8.480;2024-02-04T14:17:57;1.20;;;0.50;;
41629;SDS011;27322;49.488;8.480;2024-02-04T14:20:24;0.80;;;0.50;;
41629;SDS011;27322;49.488;8.480;2024-02-04T14:22:49;2.45;;;0.47;;
41629;SDS011;27322;49.488;8.480;2024-02-04T14:25:16;0.63;;;0.30;;
41629;SDS011;27322;49.488;8.480;2024-02-04T14:27:41;1.58;;;0.50;;
41629;SDS011;27322;49.488;8.480;2024-02-04T14:30:08;0.90;;;0.50;;
41629;SDS011;27322;49.488;8.480;2024-02-04T14:32:34;1.02;;;0.50;;
41629;SDS011;27322;49.488;8.480;2024-02-04T14:34:59;1.52;;;0.60;;
41629;SDS011;27322;49.488;8.480;2024-02-04T14:37:25;0.93;;;0.50;;
41629;SDS011;27322;49.488;8.480;2024-02-04T14:39:51;1.15;;;0.30;;
41629;SDS011;27322;49.488;8.480;2024-02-04T14:42:17;1.42;;;0.60;;
41629;SDS011;27322;49.488;8.480;2024-02-04T14:44:43;2.03;;;0.52;;
41629;SDS011;27322;49.488;8.480;2024-02-04T14:47:09;1.02;;;0.50;;
41629;SDS011;27322;49.488;8.480;2024-02-04T14:49:36;0.98;;;0.60;;
41629;SDS011;27322;49.488;8.480;2024-02-04T14:52:02;1.08;;;0.40;;
41629;SDS011;27322;49.488;8.480;2024-02-04T14:54:28;0.90;;;0.50;;
41629;SDS011;27322;49.488;8.480;2024-02-04T14:56:53;0.80;;;0.40;;
41629;SDS011;27322;49.488;8.480;2024-02-04T14:59:19;0.95;;;0.47;;
41629;SDS011;27322;49.488;8.480;2024-02-04T15:01:45;1.20;;;0.60;;